Gran Canaria > ESTACION METEOROLÓGICA Vecindario - Santa Lucía de Tirajana

DATOS ACTUALES Online

Ultima actulizacion 35 minutos

22 ºC

Temperatura

90

Humedad (%)

1002.06

Presión (mb)

20.8

Precipitación (mm)

24.6 NO

Viento (Km/h)

DATOS DIARIOS

Temperatura últimas 24 horas (ºC)

Humedad últimas 24 horas (%)

Presión atmosférica últimas 24 horas (mb)

Precipitaciones últimas 23 horas (mm)

Viento últimas 24 horas (Km/h)

Hora Temperatura (°C) ºC Precipitación (mm) mm Presión (mb) mb Humedad (%) % Viento (Km/h) km/h
25 - 00:00 22.8 0 1005 77 31.5 NO
25 - 01:00 22.7 0 1005 77 31.8 NO
25 - 02:00 22.6 0 1004 79 31.3 NO
25 - 03:00 22.6 0 1003 78 26.9 NO
25 - 04:00 22.3 0.1 1003 80 23.4 NO
25 - 05:00 22.1 0.1 1003 81 27.7 NO
25 - 06:00 22.1 0.2 1003 81 30.9 NO
25 - 07:00 22.3 1 1002 76 32.5 NO
25 - 08:00 21.5 4 1003 78 38.5 NO
25 - 09:00 22.1 5.2 1003 78 36.8 NO
25 - 10:00 22.2 5.3 1004 77 35.3 NO
25 - 11:00 22 5.6 1004 77 37.3 NO
25 - 12:00 22.5 5.7 1004 78 37.7 NO
25 - 13:00 23.2 5.7 1004 77 32.4 NO
25 - 14:00 22.9 5.8 1003 81 33.3 NO
25 - 15:00 21.8 7.8 1003 89 33.3 NO
25 - 16:00 21.3 12.2 1002 91 38.7 NO
25 - 17:00 21.1 15.1 1003 92 33.3 NO
25 - 18:00 20.8 17.3 1003 93 28.7 NO
25 - 19:00 20.9 19.3 1003 93 26.4 NO
25 - 20:00 21 20.8 1003 92 24.8 NO
25 - 21:00 21.5 20.8 1003 91 24.4 NO
25 - 22:00 21.7 20.8 1002 90 25.8 NO
25 - 23:00 22 20.8 1002 90 24.6 NO
26 - 00:00
Apalmet utiliza cookies propias y de terceros para mejorar la usabilidad y la experiencia web. Política de cookies.